sensor_id;sensor_type;location;lat;lon;timestamp;P1;durP1;ratioP1;P2;durP2;ratioP2
58752;SDS011;44525;46.052;13.610;2023-04-24T00:00:27;15.25;;;10.25;;
58752;SDS011;44525;46.052;13.610;2023-04-24T00:02:53;16.45;;;10.75;;
58752;SDS011;44525;46.052;13.610;2023-04-24T00:05:21;14.25;;;10.70;;
58752;SDS011;44525;46.052;13.610;2023-04-24T00:07:47;17.00;;;11.00;;
58752;SDS011;44525;46.052;13.610;2023-04-24T00:10:13;18.77;;;11.02;;
58752;SDS011;44525;46.052;13.610;2023-04-24T00:12:38;17.75;;;10.95;;
58752;SDS011;44525;46.052;13.610;2023-04-24T00:15:04;18.75;;;11.43;;
58752;SDS011;44525;46.052;13.610;2023-04-24T00:17:30;15.45;;;11.18;;
58752;SDS011;44525;46.052;13.610;2023-04-24T00:19:56;17.85;;;11.48;;
58752;SDS011;44525;46.052;13.610;2023-04-24T00:22:26;21.52;;;11.68;;
58752;SDS011;44525;46.052;13.610;2023-04-24T00:24:53;19.88;;;12.55;;
58752;SDS011;44525;46.052;13.610;2023-04-24T00:27:18;20.00;;;11.57;;
58752;SDS011;44525;46.052;13.610;2023-04-24T00:29:43;17.27;;;12.10;;
58752;SDS011;44525;46.052;13.610;2023-04-24T00:32:09;14.98;;;10.40;;
58752;SDS011;44525;46.052;13.610;2023-04-24T00:34:34;15.82;;;10.50;;
58752;SDS011;44525;46.052;13.610;2023-04-24T00:37:00;24.75;;;12.70;;
58752;SDS011;44525;46.052;13.610;2023-04-24T00:39:26;16.15;;;11.73;;
58752;SDS011;44525;46.052;13.610;2023-04-24T00:41:51;15.10;;;10.27;;
58752;SDS011;44525;46.052;13.610;2023-04-24T00:44:18;18.92;;;11.85;;
58752;SDS011;44525;46.052;13.610;2023-04-24T00:46:43;15.02;;;10.82;;
58752;SDS011;44525;46.052;13.610;2023-04-24T00:49:09;16.80;;;11.25;;
58752;SDS011;44525;46.052;13.610;2023-04-24T00:51:34;14.70;;;10.45;;
58752;SDS011;44525;46.052;13.610;2023-04-24T00:54:01;16.88;;;11.57;;
58752;SDS011;44525;46.052;13.610;2023-04-24T00:56:27;16.98;;;10.75;;
58752;SDS011;44525;46.052;13.610;2023-04-24T00:58:53;18.73;;;11.70;;
58752;SDS011;44525;46.052;13.610;2023-04-24T01:01:19;16.17;;;11.32;;
58752;SDS011;44525;46.052;13.610;2023-04-24T01:03:46;16.77;;;11.55;;
58752;SDS011;44525;46.052;13.610;2023-04-24T01:06:11;17.00;;;11.60;;
58752;SDS011;44525;46.052;13.610;2023-04-24T01:08:37;15.02;;;10.50;;
58752;SDS011;44525;46.052;13.610;2023-04-24T01:11:04;13.52;;;10.15;;
58752;SDS011;44525;46.052;13.610;2023-04-24T01:13:31;16.50;;;9.95;;
58752;SDS011;44525;46.052;13.610;2023-04-24T01:15:57;19.77;;;10.05;;
58752;SDS011;44525;46.052;13.610;2023-04-24T01:18:23;13.85;;;10.10;;
58752;SDS011;44525;46.052;13.610;2023-04-24T01:20:48;15.75;;;10.90;;
58752;SDS011;44525;46.052;13.610;2023-04-24T01:23:18;14.25;;;9.90;;
58752;SDS011;44525;46.052;13.610;2023-04-24T01:25:44;15.05;;;10.75;;
58752;SDS011;44525;46.052;13.610;2023-04-24T01:28:09;15.77;;;11.02;;
58752;SDS011;44525;46.052;13.610;2023-04-24T01:30:35;17.23;;;11.52;;
58752;SDS011;44525;46.052;13.610;2023-04-24T01:33:00;17.50;;;10.80;;
58752;SDS011;44525;46.052;13.610;2023-04-24T01:35:26;17.17;;;11.20;;
58752;SDS011;44525;46.052;13.610;2023-04-24T01:37:52;16.10;;;11.50;;
58752;SDS011;44525;46.052;13.610;2023-04-24T01:40:17;15.25;;;9.95;;
58752;SDS011;44525;46.052;13.610;2023-04-24T01:42:43;16.60;;;10.63;;
58752;SDS011;44525;46.052;13.610;2023-04-24T01:45:10;13.13;;;9.52;;
58752;SDS011;44525;46.052;13.610;2023-04-24T01:47:37;14.13;;;11.02;;
58752;SDS011;44525;46.052;13.610;2023-04-24T01:50:03;16.20;;;9.95;;
58752;SDS011;44525;46.052;13.610;2023-04-24T01:52:29;15.10;;;10.57;;
58752;SDS011;44525;46.052;13.610;2023-04-24T01:54:59;14.15;;;9.90;;
58752;SDS011;44525;46.052;13.610;2023-04-24T01:57:25;15.65;;;10.63;;
58752;SDS011;44525;46.052;13.610;2023-04-24T01:59:51;15.27;;;10.35;;
58752;SDS011;44525;46.052;13.610;2023-04-24T02:02:16;18.33;;;10.88;;
58752;SDS011;44525;46.052;13.610;2023-04-24T02:04:42;19.52;;;10.45;;
58752;SDS011;44525;46.052;13.610;2023-04-24T02:07:07;16.17;;;10.95;;
58752;SDS011;44525;46.052;13.610;2023-04-24T02:09:33;14.30;;;10.43;;
58752;SDS011;44525;46.052;13.610;2023-04-24T02:11:58;14.15;;;10.85;;
58752;SDS011;44525;46.052;13.610;2023-04-24T02:14:23;13.70;;;9.73;;
58752;SDS011;44525;46.052;13.610;2023-04-24T02:16:49;17.15;;;11.60;;
58752;SDS011;44525;46.052;13.610;2023-04-24T02:19:14;16.90;;;11.68;;
58752;SDS011;44525;46.052;13.610;2023-04-24T02:21:40;18.13;;;10.55;;
58752;SDS011;44525;46.052;13.610;2023-04-24T02:24:06;14.70;;;10.23;;
58752;SDS011;44525;46.052;13.610;2023-04-24T02:26:31;15.98;;;10.30;;
58752;SDS011;44525;46.052;13.610;2023-04-24T02:28:57;15.55;;;10.02;;
58752;SDS011;44525;46.052;13.610;2023-04-24T02:31:22;15.15;;;9.75;;
58752;SDS011;44525;46.052;13.610;2023-04-24T02:33:48;16.73;;;10.00;;
58752;SDS011;44525;46.052;13.610;2023-04-24T02:36:13;15.43;;;10.40;;
58752;SDS011;44525;46.052;13.610;2023-04-24T02:38:39;16.90;;;10.75;;
58752;SDS011;44525;46.052;13.610;2023-04-24T02:41:04;17.40;;;10.38;;
58752;SDS011;44525;46.052;13.610;2023-04-24T02:43:31;14.38;;;9.63;;
58752;SDS011;44525;46.052;13.610;2023-04-24T02:45:57;15.02;;;10.27;;
58752;SDS011;44525;46.052;13.610;2023-04-24T02:48:23;15.85;;;10.65;;
58752;SDS011;44525;46.052;13.610;2023-04-24T02:50:48;16.45;;;10.68;;
58752;SDS011;44525;46.052;13.610;2023-04-24T02:53:14;13.63;;;9.82;;
58752;SDS011;44525;46.052;13.610;2023-04-24T02:55:39;16.02;;;9.95;;
58752;SDS011;44525;46.052;13.610;2023-04-24T02:58:05;15.98;;;10.15;;
58752;SDS011;44525;46.052;13.610;2023-04-24T03:00:31;17.60;;;10.75;;
58752;SDS011;44525;46.052;13.610;2023-04-24T03:02:56;14.65;;;10.35;;
58752;SDS011;44525;46.052;13.610;2023-04-24T03:05:21;14.85;;;10.85;;
58752;SDS011;44525;46.052;13.610;2023-04-24T03:07:47;16.38;;;10.73;;
58752;SDS011;44525;46.052;13.610;2023-04-24T03:10:13;16.35;;;9.88;;
58752;SDS011;44525;46.052;13.610;2023-04-24T03:12:38;12.73;;;9.55;;
58752;SDS011;44525;46.052;13.610;2023-04-24T03:15:04;15.77;;;9.55;;
58752;SDS011;44525;46.052;13.610;2023-04-24T03:17:29;16.30;;;9.65;;
58752;SDS011;44525;46.052;13.610;2023-04-24T03:19:55;14.93;;;9.75;;
58752;SDS011;44525;46.052;13.610;2023-04-24T03:22:21;15.60;;;10.48;;
58752;SDS011;44525;46.052;13.610;2023-04-24T03:24:46;15.95;;;10.88;;
58752;SDS011;44525;46.052;13.610;2023-04-24T03:27:11;14.77;;;9.73;;
58752;SDS011;44525;46.052;13.610;2023-04-24T03:29:37;14.68;;;10.13;;
58752;SDS011;44525;46.052;13.610;2023-04-24T03:32:02;14.80;;;9.52;;
58752;SDS011;44525;46.052;13.610;2023-04-24T03:34:28;17.55;;;9.82;;
58752;SDS011;44525;46.052;13.610;2023-04-24T03:36:53;18.60;;;11.40;;
58752;SDS011;44525;46.052;13.610;2023-04-24T03:39:18;15.98;;;9.90;;
58752;SDS011;44525;46.052;13.610;2023-04-24T03:41:44;13.60;;;9.68;;
58752;SDS011;44525;46.052;13.610;2023-04-24T03:44:09;16.20;;;10.27;;
58752;SDS011;44525;46.052;13.610;2023-04-24T03:46:35;13.88;;;10.07;;
58752;SDS011;44525;46.052;13.610;2023-04-24T03:49:00;17.33;;;10.85;;
58752;SDS011;44525;46.052;13.610;2023-04-24T03:51:25;17.02;;;10.88;;
58752;SDS011;44525;46.052;13.610;2023-04-24T03:53:53;17.58;;;10.98;;
58752;SDS011;44525;46.052;13.610;2023-04-24T03:56:18;15.20;;;10.90;;
58752;SDS011;44525;46.052;13.610;2023-04-24T03:58:44;16.50;;;10.93;;
58752;SDS011;44525;46.052;13.610;2023-04-24T04:01:10;15.32;;;10.40;;
58752;SDS011;44525;46.052;13.610;2023-04-24T04:03:36;13.77;;;10.15;;
58752;SDS011;44525;46.052;13.610;2023-04-24T04:06:02;13.27;;;9.88;;
58752;SDS011;44525;46.052;13.610;2023-04-24T04:08:27;16.10;;;11.00;;
58752;SDS011;44525;46.052;13.610;2023-04-24T04:10:53;15.90;;;10.27;;
58752;SDS011;44525;46.052;13.610;2023-04-24T04:13:18;16.20;;;10.15;;
58752;SDS011;44525;46.052;13.610;2023-04-24T04:15:43;15.95;;;10.02;;
58752;SDS011;44525;46.052;13.610;2023-04-24T04:18:09;15.82;;;10.00;;
58752;SDS011;44525;46.052;13.610;2023-04-24T04:20:34;14.57;;;9.77;;
58752;SDS011;44525;46.052;13.610;2023-04-24T04:23:00;19.77;;;10.55;;
58752;SDS011;44525;46.052;13.610;2023-04-24T04:25:25;14.85;;;9.57;;
58752;SDS011;44525;46.052;13.610;2023-04-24T04:27:51;15.57;;;9.70;;
58752;SDS011;44525;46.052;13.610;2023-04-24T04:30:17;15.45;;;9.98;;
58752;SDS011;44525;46.052;13.610;2023-04-24T04:32:43;16.80;;;9.95;;
58752;SDS011;44525;46.052;13.610;2023-04-24T04:35:09;16.08;;;10.20;;
58752;SDS011;44525;46.052;13.610;2023-04-24T04:37:34;14.20;;;10.25;;
58752;SDS011;44525;46.052;13.610;2023-04-24T04:39:59;14.07;;;10.23;;
58752;SDS011;44525;46.052;13.610;2023-04-24T04:42:25;17.30;;;9.82;;
58752;SDS011;44525;46.052;13.610;2023-04-24T04:44:52;13.13;;;10.07;;
58752;SDS011;44525;46.052;13.610;2023-04-24T04:47:18;13.70;;;9.85;;
58752;SDS011;44525;46.052;13.610;2023-04-24T04:49:49;13.98;;;9.32;;
58752;SDS011;44525;46.052;13.610;2023-04-24T04:52:16;14.60;;;9.77;;
58752;SDS011;44525;46.052;13.610;2023-04-24T04:54:42;14.25;;;9.73;;
58752;SDS011;44525;46.052;13.610;2023-04-24T04:57:08;17.60;;;10.38;;
58752;SDS011;44525;46.052;13.610;2023-04-24T04:59:34;15.63;;;10.38;;
58752;SDS011;44525;46.052;13.610;2023-04-24T05:01:59;15.23;;;9.60;;
58752;SDS011;44525;46.052;13.610;2023-04-24T05:04:25;13.38;;;9.32;;
58752;SDS011;44525;46.052;13.610;2023-04-24T05:06:51;14.38;;;9.60;;
58752;SDS011;44525;46.052;13.610;2023-04-24T05:09:16;16.30;;;10.07;;
58752;SDS011;44525;46.052;13.610;2023-04-24T05:11:42;14.10;;;9.45;;
58752;SDS011;44525;46.052;13.610;2023-04-24T05:14:07;15.23;;;9.93;;
58752;SDS011;44525;46.052;13.610;2023-04-24T05:16:33;15.00;;;9.82;;
58752;SDS011;44525;46.052;13.610;2023-04-24T05:18:58;13.38;;;9.68;;
58752;SDS011;44525;46.052;13.610;2023-04-24T05:21:23;15.77;;;10.88;;
58752;SDS011;44525;46.052;13.610;2023-04-24T05:23:49;17.83;;;11.05;;
58752;SDS011;44525;46.052;13.610;2023-04-24T05:26:14;16.58;;;11.43;;
58752;SDS011;44525;46.052;13.610;2023-04-24T05:28:40;16.48;;;10.95;;
58752;SDS011;44525;46.052;13.610;2023-04-24T05:31:06;18.25;;;10.75;;
58752;SDS011;44525;46.052;13.610;2023-04-24T05:33:31;14.85;;;9.90;;
58752;SDS011;44525;46.052;13.610;2023-04-24T05:35:56;16.70;;;11.15;;
58752;SDS011;44525;46.052;13.610;2023-04-24T05:38:22;17.73;;;11.18;;
58752;SDS011;44525;46.052;13.610;2023-04-24T05:40:48;16.40;;;10.68;;
58752;SDS011;44525;46.052;13.610;2023-04-24T05:43:13;14.57;;;10.23;;
58752;SDS011;44525;46.052;13.610;2023-04-24T05:45:38;19.45;;;10.52;;
58752;SDS011;44525;46.052;13.610;2023-04-24T05:48:04;15.90;;;10.38;;
58752;SDS011;44525;46.052;13.610;2023-04-24T05:50:30;14.15;;;9.88;;
58752;SDS011;44525;46.052;13.610;2023-04-24T05:52:56;14.05;;;9.38;;
58752;SDS011;44525;46.052;13.610;2023-04-24T05:55:23;15.68;;;10.63;;
58752;SDS011;44525;46.052;13.610;2023-04-24T05:57:49;15.80;;;10.93;;
58752;SDS011;44525;46.052;13.610;2023-04-24T06:00:15;16.60;;;10.57;;
58752;SDS011;44525;46.052;13.610;2023-04-24T06:02:40;15.73;;;11.15;;
58752;SDS011;44525;46.052;13.610;2023-04-24T06:05:06;12.57;;;8.82;;
58752;SDS011;44525;46.052;13.610;2023-04-24T06:07:33;16.02;;;10.13;;
58752;SDS011;44525;46.052;13.610;2023-04-24T06:09:58;17.90;;;10.57;;
58752;SDS011;44525;46.052;13.610;2023-04-24T06:12:24;15.68;;;10.07;;
58752;SDS011;44525;46.052;13.610;2023-04-24T06:14:50;18.05;;;10.18;;
58752;SDS011;44525;46.052;13.610;2023-04-24T06:17:16;15.57;;;10.57;;
58752;SDS011;44525;46.052;13.610;2023-04-24T06:19:41;16.98;;;11.02;;
58752;SDS011;44525;46.052;13.610;2023-04-24T06:22:07;15.88;;;10.20;;
58752;SDS011;44525;46.052;13.610;2023-04-24T06:24:33;16.20;;;10.65;;
58752;SDS011;44525;46.052;13.610;2023-04-24T06:26:59;15.57;;;10.27;;
58752;SDS011;44525;46.052;13.610;2023-04-24T06:29:25;17.40;;;10.13;;
58752;SDS011;44525;46.052;13.610;2023-04-24T06:31:50;18.95;;;9.82;;
58752;SDS011;44525;46.052;13.610;2023-04-24T06:34:16;16.35;;;10.57;;
58752;SDS011;44525;46.052;13.610;2023-04-24T06:36:41;16.60;;;10.52;;
58752;SDS011;44525;46.052;13.610;2023-04-24T06:39:07;18.30;;;11.07;;
58752;SDS011;44525;46.052;13.610;2023-04-24T06:41:32;18.13;;;11.88;;
58752;SDS011;44525;46.052;13.610;2023-04-24T06:43:57;18.58;;;10.70;;
58752;SDS011;44525;46.052;13.610;2023-04-24T06:46:23;20.33;;;11.25;;
58752;SDS011;44525;46.052;13.610;2023-04-24T06:48:51;14.82;;;10.60;;
58752;SDS011;44525;46.052;13.610;2023-04-24T06:51:21;18.17;;;10.43;;
58752;SDS011;44525;46.052;13.610;2023-04-24T06:53:53;18.58;;;11.27;;
58752;SDS011;44525;46.052;13.610;2023-04-24T06:56:21;19.33;;;11.70;;
58752;SDS011;44525;46.052;13.610;2023-04-24T06:58:46;15.13;;;10.18;;
58752;SDS011;44525;46.052;13.610;2023-04-24T07:01:12;16.02;;;10.95;;
58752;SDS011;44525;46.052;13.610;2023-04-24T07:03:37;17.67;;;11.20;;
58752;SDS011;44525;46.052;13.610;2023-04-24T07:06:04;15.68;;;11.05;;
58752;SDS011;44525;46.052;13.610;2023-04-24T07:08:30;18.08;;;10.90;;
58752;SDS011;44525;46.052;13.610;2023-04-24T07:10:58;21.98;;;11.52;;
58752;SDS011;44525;46.052;13.610;2023-04-24T07:13:24;15.70;;;10.27;;
58752;SDS011;44525;46.052;13.610;2023-04-24T07:15:51;16.83;;;10.75;;
58752;SDS011;44525;46.052;13.610;2023-04-24T07:18:18;15.07;;;10.23;;
58752;SDS011;44525;46.052;13.610;2023-04-24T07:20:44;16.67;;;10.68;;
58752;SDS011;44525;46.052;13.610;2023-04-24T07:23:10;16.15;;;10.77;;
58752;SDS011;44525;46.052;13.610;2023-04-24T07:25:35;15.55;;;10.63;;
58752;SDS011;44525;46.052;13.610;2023-04-24T07:28:01;18.05;;;11.60;;
58752;SDS011;44525;46.052;13.610;2023-04-24T07:30:26;25.30;;;11.70;;
58752;SDS011;44525;46.052;13.610;2023-04-24T07:32:53;17.92;;;11.98;;
58752;SDS011;44525;46.052;13.610;2023-04-24T07:35:19;19.42;;;11.27;;
58752;SDS011;44525;46.052;13.610;2023-04-24T07:37:45;17.73;;;10.98;;
58752;SDS011;44525;46.052;13.610;2023-04-24T07:40:11;18.05;;;11.80;;
58752;SDS011;44525;46.052;13.610;2023-04-24T07:42:40;17.65;;;11.20;;
58752;SDS011;44525;46.052;13.610;2023-04-24T07:45:06;16.13;;;11.32;;
58752;SDS011;44525;46.052;13.610;2023-04-24T07:47:32;14.90;;;10.25;;
58752;SDS011;44525;46.052;13.610;2023-04-24T07:49:58;19.38;;;13.35;;
58752;SDS011;44525;46.052;13.610;2023-04-24T07:52:24;36.22;;;31.90;;
58752;SDS011;44525;46.052;13.610;2023-04-24T07:54:50;19.73;;;15.15;;
58752;SDS011;44525;46.052;13.610;2023-04-24T07:57:15;17.65;;;12.30;;
58752;SDS011;44525;46.052;13.610;2023-04-24T07:59:41;21.15;;;12.05;;
58752;SDS011;44525;46.052;13.610;2023-04-24T08:02:07;23.52;;;11.40;;
58752;SDS011;44525;46.052;13.610;2023-04-24T08:04:33;15.48;;;10.65;;
58752;SDS011;44525;46.052;13.610;2023-04-24T08:06:58;14.95;;;10.40;;
58752;SDS011;44525;46.052;13.610;2023-04-24T08:09:24;19.02;;;12.30;;
58752;SDS011;44525;46.052;13.610;2023-04-24T08:11:49;19.40;;;12.35;;
58752;SDS011;44525;46.052;13.610;2023-04-24T08:14:15;21.65;;;12.93;;
58752;SDS011;44525;46.052;13.610;2023-04-24T08:16:41;22.05;;;12.50;;
58752;SDS011;44525;46.052;13.610;2023-04-24T08:19:06;19.52;;;12.10;;
58752;SDS011;44525;46.052;13.610;2023-04-24T08:21:32;17.00;;;11.20;;
58752;SDS011;44525;46.052;13.610;2023-04-24T08:23:57;18.70;;;10.77;;
58752;SDS011;44525;46.052;13.610;2023-04-24T08:26:23;18.70;;;10.55;;
58752;SDS011;44525;46.052;13.610;2023-04-24T08:28:48;17.00;;;11.27;;
58752;SDS011;44525;46.052;13.610;2023-04-24T08:31:14;17.75;;;10.88;;
58752;SDS011;44525;46.052;13.610;2023-04-24T08:33:39;17.33;;;10.88;;
58752;SDS011;44525;46.052;13.610;2023-04-24T08:36:06;17.80;;;11.27;;
58752;SDS011;44525;46.052;13.610;2023-04-24T08:38:32;17.50;;;11.55;;
58752;SDS011;44525;46.052;13.610;2023-04-24T08:40:59;17.70;;;11.07;;
58752;SDS011;44525;46.052;13.610;2023-04-24T08:43:25;16.20;;;10.48;;
58752;SDS011;44525;46.052;13.610;2023-04-24T08:45:51;17.77;;;11.05;;
58752;SDS011;44525;46.052;13.610;2023-04-24T08:48:17;17.77;;;11.27;;
58752;SDS011;44525;46.052;13.610;2023-04-24T08:50:43;18.85;;;10.75;;
58752;SDS011;44525;46.052;13.610;2023-04-24T08:53:09;16.00;;;10.15;;
58752;SDS011;44525;46.052;13.610;2023-04-24T08:55:35;18.90;;;11.57;;
58752;SDS011;44525;46.052;13.610;2023-04-24T08:58:02;16.42;;;11.52;;
58752;SDS011;44525;46.052;13.610;2023-04-24T09:00:28;14.52;;;10.65;;
58752;SDS011;44525;46.052;13.610;2023-04-24T09:02:54;17.50;;;11.38;;
58752;SDS011;44525;46.052;13.610;2023-04-24T09:05:21;15.63;;;10.38;;
58752;SDS011;44525;46.052;13.610;2023-04-24T09:07:53;17.83;;;11.65;;
58752;SDS011;44525;46.052;13.610;2023-04-24T09:10:20;14.77;;;10.20;;
58752;SDS011;44525;46.052;13.610;2023-04-24T09:12:47;15.40;;;10.65;;
58752;SDS011;44525;46.052;13.610;2023-04-24T09:15:14;15.15;;;9.48;;
58752;SDS011;44525;46.052;13.610;2023-04-24T09:17:40;13.15;;;8.75;;
58752;SDS011;44525;46.052;13.610;2023-04-24T09:20:05;11.32;;;8.43;;
58752;SDS011;44525;46.052;13.610;2023-04-24T09:22:31;14.07;;;9.43;;
58752;SDS011;44525;46.052;13.610;2023-04-24T09:25:03;13.02;;;8.13;;
58752;SDS011;44525;46.052;13.610;2023-04-24T09:27:32;13.80;;;9.13;;
58752;SDS011;44525;46.052;13.610;2023-04-24T09:29:58;14.30;;;9.68;;
58752;SDS011;44525;46.052;13.610;2023-04-24T09:32:24;13.52;;;9.73;;
58752;SDS011;44525;46.052;13.610;2023-04-24T09:35:05;13.60;;;8.73;;
58752;SDS011;44525;46.052;13.610;2023-04-24T09:37:36;12.65;;;8.00;;
58752;SDS011;44525;46.052;13.610;2023-04-24T09:40:12;12.35;;;7.60;;
58752;SDS011;44525;46.052;13.610;2023-04-24T09:42:46;10.63;;;7.43;;
58752;SDS011;44525;46.052;13.610;2023-04-24T09:45:17;10.85;;;7.43;;
58752;SDS011;44525;46.052;13.610;2023-04-24T09:47:42;14.20;;;8.65;;
58752;SDS011;44525;46.052;13.610;2023-04-24T09:50:15;12.70;;;7.13;;
58752;SDS011;44525;46.052;13.610;2023-04-24T09:52:55;10.13;;;7.00;;
58752;SDS011;44525;46.052;13.610;2023-04-24T09:55:22;12.80;;;7.93;;
58752;SDS011;44525;46.052;13.610;2023-04-24T09:57:55;11.25;;;7.18;;
58752;SDS011;44525;46.052;13.610;2023-04-24T10:00:22;13.00;;;8.25;;
58752;SDS011;44525;46.052;13.610;2023-04-24T10:02:50;10.70;;;7.68;;
58752;SDS011;44525;46.052;13.610;2023-04-24T10:05:22;12.35;;;7.57;;
58752;SDS011;44525;46.052;13.610;2023-04-24T10:08:00;11.20;;;7.43;;
58752;SDS011;44525;46.052;13.610;2023-04-24T10:10:34;13.65;;;7.65;;
58752;SDS011;44525;46.052;13.610;2023-04-24T10:13:07;11.07;;;7.50;;
58752;SDS011;44525;46.052;13.610;2023-04-24T10:15:35;11.73;;;8.23;;
58752;SDS011;44525;46.052;13.610;2023-04-24T10:18:01;9.68;;;7.18;;
58752;SDS011;44525;46.052;13.610;2023-04-24T10:20:29;9.57;;;7.45;;
58752;SDS011;44525;46.052;13.610;2023-04-24T10:22:58;14.13;;;7.75;;
58752;SDS011;44525;46.052;13.610;2023-04-24T10:25:28;13.20;;;7.80;;
58752;SDS011;44525;46.052;13.610;2023-04-24T10:27:56;13.43;;;8.13;;
58752;SDS011;44525;46.052;13.610;2023-04-24T10:30:24;14.65;;;8.60;;
58752;SDS011;44525;46.052;13.610;2023-04-24T10:32:51;16.48;;;9.15;;
58752;SDS011;44525;46.052;13.610;2023-04-24T10:35:17;13.00;;;7.80;;
58752;SDS011;44525;46.052;13.610;2023-04-24T10:37:51;14.95;;;8.20;;
58752;SDS011;44525;46.052;13.610;2023-04-24T10:40:31;11.30;;;7.50;;
58752;SDS011;44525;46.052;13.610;2023-04-24T10:42:58;12.68;;;7.32;;
58752;SDS011;44525;46.052;13.610;2023-04-24T10:45:25;12.40;;;7.43;;
58752;SDS011;44525;46.052;13.610;2023-04-24T10:48:12;10.98;;;6.57;;
58752;SDS011;44525;46.052;13.610;2023-04-24T10:50:47;9.82;;;6.72;;
58752;SDS011;44525;46.052;13.610;2023-04-24T10:53:17;11.05;;;6.47;;
58752;SDS011;44525;46.052;13.610;2023-04-24T10:58:11;10.35;;;7.15;;
58752;SDS011;44525;46.052;13.610;2023-04-24T11:00:37;13.40;;;6.55;;
58752;SDS011;44525;46.052;13.610;2023-04-24T11:03:05;10.32;;;6.28;;
58752;SDS011;44525;46.052;13.610;2023-04-24T11:05:51;9.82;;;5.65;;
58752;SDS011;44525;46.052;13.610;2023-04-24T11:08:38;10.07;;;5.68;;
58752;SDS011;44525;46.052;13.610;2023-04-24T11:11:14;9.93;;;5.72;;
58752;SDS011;44525;46.052;13.610;2023-04-24T11:19:00;9.18;;;5.85;;
58752;SDS011;44525;46.052;13.610;2023-04-24T11:21:30;10.07;;;6.10;;
58752;SDS011;44525;46.052;13.610;2023-04-24T11:23:58;8.40;;;5.72;;
58752;SDS011;44525;46.052;13.610;2023-04-24T11:26:23;7.72;;;5.47;;
58752;SDS011;44525;46.052;13.610;2023-04-24T11:29:05;11.27;;;6.28;;
58752;SDS011;44525;46.052;13.610;2023-04-24T11:31:50;15.98;;;7.70;;
58752;SDS011;44525;46.052;13.610;2023-04-24T11:34:16;10.38;;;6.63;;
58752;SDS011;44525;46.052;13.610;2023-04-24T11:36:44;13.00;;;7.45;;
58752;SDS011;44525;46.052;13.610;2023-04-24T11:39:10;14.65;;;7.45;;
58752;SDS011;44525;46.052;13.610;2023-04-24T11:41:36;10.23;;;6.00;;
58752;SDS011;44525;46.052;13.610;2023-04-24T11:44:05;10.98;;;7.72;;
58752;SDS011;44525;46.052;13.610;2023-04-24T11:46:32;15.52;;;10.23;;
58752;SDS011;44525;46.052;13.610;2023-04-24T11:48:58;17.05;;;10.02;;
58752;SDS011;44525;46.052;13.610;2023-04-24T11:51:25;12.13;;;8.45;;
58752;SDS011;44525;46.052;13.610;2023-04-24T11:53:51;11.98;;;7.97;;
58752;SDS011;44525;46.052;13.610;2023-04-24T11:56:18;15.18;;;8.38;;
58752;SDS011;44525;46.052;13.610;2023-04-24T11:58:47;13.93;;;7.22;;
58752;SDS011;44525;46.052;13.610;2023-04-24T12:01:13;11.70;;;7.50;;
58752;SDS011;44525;46.052;13.610;2023-04-24T12:03:38;11.93;;;6.38;;
58752;SDS011;44525;46.052;13.610;2023-04-24T12:06:08;9.90;;;6.57;;
58752;SDS011;44525;46.052;13.610;2023-04-24T12:08:35;10.60;;;7.03;;
58752;SDS011;44525;46.052;13.610;2023-04-24T12:11:01;9.93;;;6.70;;
58752;SDS011;44525;46.052;13.610;2023-04-24T12:13:28;9.45;;;6.55;;
58752;SDS011;44525;46.052;13.610;2023-04-24T12:15:53;12.70;;;7.65;;
58752;SDS011;44525;46.052;13.610;2023-04-24T12:18:21;26.40;;;15.88;;
58752;SDS011;44525;46.052;13.610;2023-04-24T12:20:47;13.80;;;8.73;;
58752;SDS011;44525;46.052;13.610;2023-04-24T12:23:13;10.82;;;6.75;;
58752;SDS011;44525;46.052;13.610;2023-04-24T12:25:38;6.35;;;4.38;;
58752;SDS011;44525;46.052;13.610;2023-04-24T12:30:30;5.70;;;2.85;;
58752;SDS011;44525;46.052;13.610;2023-04-24T12:32:57;4.32;;;2.47;;
58752;SDS011;44525;46.052;13.610;2023-04-24T12:35:25;4.35;;;2.78;;
58752;SDS011;44525;46.052;13.610;2023-04-24T12:37:53;4.05;;;2.50;;
58752;SDS011;44525;46.052;13.610;2023-04-24T12:40:19;4.80;;;2.72;;
58752;SDS011;44525;46.052;13.610;2023-04-24T12:42:49;5.18;;;3.40;;
58752;SDS011;44525;46.052;13.610;2023-04-24T12:45:16;4.80;;;3.08;;
58752;SDS011;44525;46.052;13.610;2023-04-24T12:47:43;10.63;;;3.35;;
58752;SDS011;44525;46.052;13.610;2023-04-24T12:50:13;5.03;;;3.13;;
58752;SDS011;44525;46.052;13.610;2023-04-24T12:52:40;5.93;;;3.15;;
58752;SDS011;44525;46.052;13.610;2023-04-24T12:55:06;6.32;;;3.33;;
58752;SDS011;44525;46.052;13.610;2023-04-24T12:57:33;6.30;;;3.20;;
58752;SDS011;44525;46.052;13.610;2023-04-24T12:59:59;4.93;;;3.30;;
58752;SDS011;44525;46.052;13.610;2023-04-24T13:02:26;9.15;;;3.30;;
58752;SDS011;44525;46.052;13.610;2023-04-24T13:04:55;5.75;;;3.17;;
58752;SDS011;44525;46.052;13.610;2023-04-24T13:07:20;8.93;;;3.88;;
58752;SDS011;44525;46.052;13.610;2023-04-24T13:09:47;23.27;;;14.95;;
58752;SDS011;44525;46.052;13.610;2023-04-24T13:12:14;74.43;;;45.10;;
58752;SDS011;44525;46.052;13.610;2023-04-24T13:14:40;38.00;;;25.73;;
58752;SDS011;44525;46.052;13.610;2023-04-24T13:17:06;11.57;;;7.40;;
58752;SDS011;44525;46.052;13.610;2023-04-24T13:19:36;7.43;;;4.07;;
58752;SDS011;44525;46.052;13.610;2023-04-24T13:22:02;10.30;;;7.32;;
58752;SDS011;44525;46.052;13.610;2023-04-24T13:24:28;6.82;;;3.70;;
58752;SDS011;44525;46.052;13.610;2023-04-24T13:26:54;7.28;;;4.20;;
58752;SDS011;44525;46.052;13.610;2023-04-24T13:29:21;9.30;;;5.10;;
58752;SDS011;44525;46.052;13.610;2023-04-24T13:31:47;11.50;;;4.50;;
58752;SDS011;44525;46.052;13.610;2023-04-24T13:34:14;6.03;;;3.53;;
58752;SDS011;44525;46.052;13.610;2023-04-24T13:36:40;7.65;;;3.67;;
58752;SDS011;44525;46.052;13.610;2023-04-24T13:39:05;7.07;;;3.80;;
58752;SDS011;44525;46.052;13.610;2023-04-24T13:41:34;6.43;;;3.42;;
58752;SDS011;44525;46.052;13.610;2023-04-24T13:44:01;11.10;;;3.78;;
58752;SDS011;44525;46.052;13.610;2023-04-24T13:46:27;8.57;;;4.03;;
58752;SDS011;44525;46.052;13.610;2023-04-24T13:48:52;6.50;;;3.60;;
58752;SDS011;44525;46.052;13.610;2023-04-24T13:51:17;5.55;;;3.90;;
58752;SDS011;44525;46.052;13.610;2023-04-24T13:53:43;10.73;;;7.60;;
58752;SDS011;44525;46.052;13.610;2023-04-24T13:56:08;11.05;;;8.57;;
58752;SDS011;44525;46.052;13.610;2023-04-24T13:58:34;7.22;;;5.53;;
58752;SDS011;44525;46.052;13.610;2023-04-24T14:01:01;9.70;;;7.05;;
58752;SDS011;44525;46.052;13.610;2023-04-24T14:03:27;16.13;;;9.63;;
58752;SDS011;44525;46.052;13.610;2023-04-24T14:05:53;7.80;;;4.65;;
58752;SDS011;44525;46.052;13.610;2023-04-24T14:08:18;4.93;;;2.90;;
58752;SDS011;44525;46.052;13.610;2023-04-24T14:10:43;6.65;;;3.20;;
58752;SDS011;44525;46.052;13.610;2023-04-24T14:13:09;7.60;;;4.45;;
58752;SDS011;44525;46.052;13.610;2023-04-24T14:15:37;11.80;;;6.55;;
58752;SDS011;44525;46.052;13.610;2023-04-24T14:18:03;5.05;;;3.20;;
58752;SDS011;44525;46.052;13.610;2023-04-24T14:20:28;7.20;;;4.22;;
58752;SDS011;44525;46.052;13.610;2023-04-24T14:22:53;6.28;;;3.83;;